Terminal Aerodrome Forecast
Issued by NWS

Home | Current Version | Previous Version | Graphics & Text | Print | Product List | Glossary On
Versions: 1 2 3 4 5 6 7 8 9 10 11 12 13 14 15 16 17
000
FTUS43 KGRB 012100 AAA
TAFMTW
TAF AMD
KMTW 012117Z 0121/0218 15012G18KT P6SM BKN025
     FM012300 14008KT P6SM BKN025 BKN200
      TEMPO 0123/0201 SCT025 BKN200
     FM020100 15006KT 5SM BR SCT009 OVC015
      TEMPO 0204/0206 2SM -RA BR BKN009
     FM020600 13003KT 2SM -RA BR OVC008
      TEMPO 0209/0212 1/2SM FG VV003
     FM021200 15003KT 5SM BR SCT008 BKN014 PROB30 0214/0218 4SM
      -TSRA BR BKN014CB OVC022=

USA.gov is the U.S. government's official web portal to all federal, state and local government web resources and services.